Weather at Williamsburg Jamestown Airport

Public forecast

Using degrees Fahrenheit for public forecast. Weather courtesy of forecast.io.

Current aviation weather report (METAR) for Williamsburg Jamestown Airport

Retrieved 2020/09/26 03:35 UTC (17 minutes ago):

KJGG 260335Z AUTO 00000KT 7SM SCT060 BKN090 19/19 A3005 RMK AO1

Closest aviation forecast (TAF) to Williamsburg Jamestown Airport

Forecast is more than 6 hours old.

Closest forecast is Felker Army Air Field, 8.2 nm (15.2 km) SE. Retrieved 2020/09/25 18:55 UTC (9 hours ago):

TAF KFAF 251800Z 2518/2624 VRB06KT 8000 -SHRA SCT050 BKN100 OVC130 QNH3012INS BECMG 2521/2522 VRB06KT 9999 VCSH BKN030 OVC050 QNH3009INS BECMG 2605/2606 VRB06KT 6000 -SHRA BKN010 OVC030 QNH3003INS TX24/2617Z TN20/2518Z LAST NO AMDS AFT 2521 NEXT 2810